Catacamas, Honduras
Current Conditions -  °F | °C
As of 6:00 PM on Tuesday 25 Nov 2014 (Local Time) from MHCA Reporting Station
Broken Clouds Broken Clouds  
Wind Chill: 75°   Ceiling: 3000
Heat Index: 75°   Visibility: 6mi
Dew Point: 73°   Wind: 0mph
Humidity: 94%   Direction: NA
Pressure: 29.97"   Gusts: NA
Location:  14.85°N, 85.89°W
Report Text: MHCA 260000Z 00000KT 9999 BKN030CB BKN080 24/23 Q1015 CB TCU TDPCPNN NE
Loading
Personal Weather Stations






























Interactive Weather Map New forecast layout! Learn more

10-Day Weather Forecast

Advertisements
Track Severe Weather on mobile